sensor_id;sensor_type;location;lat;lon;timestamp;P1;durP1;ratioP1;P2;durP2;ratioP2
10571;SDS011;5334;48.928;12.704;2022-10-31T00:01:39;1999.90;;;999.90;;
10571;SDS011;5334;48.928;12.704;2022-10-31T00:04:07;1999.90;;;999.90;;
10571;SDS011;5334;48.928;12.704;2022-10-31T00:06:35;1999.90;;;999.90;;
10571;SDS011;5334;48.928;12.704;2022-10-31T00:09:03;1999.90;;;999.90;;
10571;SDS011;5334;48.928;12.704;2022-10-31T00:11:29;1999.90;;;999.90;;
10571;SDS011;5334;48.928;12.704;2022-10-31T00:13:56;1999.90;;;999.90;;
10571;SDS011;5334;48.928;12.704;2022-10-31T00:16:23;1999.90;;;999.90;;
10571;SDS011;5334;48.928;12.704;2022-10-31T00:18:50;1999.90;;;999.90;;
10571;SDS011;5334;48.928;12.704;2022-10-31T00:21:17;1999.90;;;999.90;;
10571;SDS011;5334;48.928;12.704;2022-10-31T00:23:43;1999.90;;;999.90;;
10571;SDS011;5334;48.928;12.704;2022-10-31T00:26:17;1999.90;;;999.90;;
10571;SDS011;5334;48.928;12.704;2022-10-31T00:28:44;1999.90;;;999.90;;
10571;SDS011;5334;48.928;12.704;2022-10-31T00:31:10;1999.90;;;999.90;;
10571;SDS011;5334;48.928;12.704;2022-10-31T00:33:37;1999.90;;;999.90;;
10571;SDS011;5334;48.928;12.704;2022-10-31T00:36:04;1999.90;;;999.90;;
10571;SDS011;5334;48.928;12.704;2022-10-31T00:38:31;1999.90;;;999.90;;
10571;SDS011;5334;48.928;12.704;2022-10-31T00:40:57;1999.90;;;999.90;;
10571;SDS011;5334;48.928;12.704;2022-10-31T00:43:22;1999.90;;;999.90;;
10571;SDS011;5334;48.928;12.704;2022-10-31T00:45:48;1999.90;;;999.90;;
10571;SDS011;5334;48.928;12.704;2022-10-31T00:48:14;1999.90;;;999.90;;
10571;SDS011;5334;48.928;12.704;2022-10-31T00:50:40;1999.90;;;999.90;;
10571;SDS011;5334;48.928;12.704;2022-10-31T00:53:06;1999.90;;;999.90;;
10571;SDS011;5334;48.928;12.704;2022-10-31T00:55:31;1999.90;;;999.90;;
10571;SDS011;5334;48.928;12.704;2022-10-31T00:57:57;1999.90;;;999.90;;
10571;SDS011;5334;48.928;12.704;2022-10-31T01:00:23;1999.90;;;999.90;;
10571;SDS011;5334;48.928;12.704;2022-10-31T01:02:49;1999.90;;;999.90;;
10571;SDS011;5334;48.928;12.704;2022-10-31T01:05:15;1999.90;;;999.90;;
10571;SDS011;5334;48.928;12.704;2022-10-31T01:07:41;1999.90;;;999.90;;
10571;SDS011;5334;48.928;12.704;2022-10-31T01:10:08;1999.90;;;999.90;;
10571;SDS011;5334;48.928;12.704;2022-10-31T01:12:38;1999.90;;;999.90;;
10571;SDS011;5334;48.928;12.704;2022-10-31T01:15:05;1999.90;;;999.90;;
10571;SDS011;5334;48.928;12.704;2022-10-31T01:17:31;1999.90;;;999.90;;
10571;SDS011;5334;48.928;12.704;2022-10-31T01:19:57;1999.90;;;999.90;;
10571;SDS011;5334;48.928;12.704;2022-10-31T01:22:23;1999.90;;;999.90;;
10571;SDS011;5334;48.928;12.704;2022-10-31T01:24:48;1999.90;;;999.90;;
10571;SDS011;5334;48.928;12.704;2022-10-31T01:27:14;1999.90;;;999.90;;
10571;SDS011;5334;48.928;12.704;2022-10-31T01:29:40;1999.90;;;999.90;;
10571;SDS011;5334;48.928;12.704;2022-10-31T01:32:05;1999.90;;;999.90;;
10571;SDS011;5334;48.928;12.704;2022-10-31T01:34:31;1999.90;;;999.90;;
10571;SDS011;5334;48.928;12.704;2022-10-31T01:36:57;1999.90;;;999.90;;
10571;SDS011;5334;48.928;12.704;2022-10-31T01:39:22;1999.90;;;999.90;;
10571;SDS011;5334;48.928;12.704;2022-10-31T01:41:49;1999.90;;;999.90;;
10571;SDS011;5334;48.928;12.704;2022-10-31T01:46:43;1999.90;;;999.90;;
10571;SDS011;5334;48.928;12.704;2022-10-31T01:49:37;1999.90;;;999.90;;
10571;SDS011;5334;48.928;12.704;2022-10-31T01:55:11;1999.90;;;999.90;;
10571;SDS011;5334;48.928;12.704;2022-10-31T01:57:40;1999.90;;;999.90;;
10571;SDS011;5334;48.928;12.704;2022-10-31T02:00:09;1999.90;;;999.90;;
10571;SDS011;5334;48.928;12.704;2022-10-31T02:02:36;1999.90;;;999.90;;
10571;SDS011;5334;48.928;12.704;2022-10-31T02:05:02;1999.90;;;999.90;;
10571;SDS011;5334;48.928;12.704;2022-10-31T02:07:39;1999.90;;;999.90;;
10571;SDS011;5334;48.928;12.704;2022-10-31T02:10:18;1999.90;;;999.90;;
10571;SDS011;5334;48.928;12.704;2022-10-31T02:12:48;1999.90;;;999.90;;
10571;SDS011;5334;48.928;12.704;2022-10-31T02:15:17;1999.90;;;999.90;;
10571;SDS011;5334;48.928;12.704;2022-10-31T02:17:43;1999.90;;;999.90;;
10571;SDS011;5334;48.928;12.704;2022-10-31T02:20:16;1999.90;;;999.90;;
10571;SDS011;5334;48.928;12.704;2022-10-31T02:25:51;1999.90;;;999.90;;
10571;SDS011;5334;48.928;12.704;2022-10-31T02:37:21;1999.90;;;999.90;;
10571;SDS011;5334;48.928;12.704;2022-10-31T02:48:08;1999.90;;;999.90;;
10571;SDS011;5334;48.928;12.704;2022-10-31T02:50:36;1999.90;;;999.90;;
10571;SDS011;5334;48.928;12.704;2022-10-31T02:53:03;1999.90;;;999.90;;
10571;SDS011;5334;48.928;12.704;2022-10-31T02:58:05;1999.90;;;999.90;;
10571;SDS011;5334;48.928;12.704;2022-10-31T03:03:32;1999.90;;;999.90;;
10571;SDS011;5334;48.928;12.704;2022-10-31T03:06:14;1999.90;;;999.90;;
10571;SDS011;5334;48.928;12.704;2022-10-31T03:08:54;1999.90;;;999.90;;
10571;SDS011;5334;48.928;12.704;2022-10-31T03:11:37;1999.90;;;999.90;;
10571;SDS011;5334;48.928;12.704;2022-10-31T03:14:10;1999.90;;;999.90;;
10571;SDS011;5334;48.928;12.704;2022-10-31T03:16:50;1999.90;;;999.90;;
10571;SDS011;5334;48.928;12.704;2022-10-31T03:19:26;1999.90;;;999.90;;
10571;SDS011;5334;48.928;12.704;2022-10-31T03:22:16;1999.90;;;999.90;;
10571;SDS011;5334;48.928;12.704;2022-10-31T03:24:46;1999.90;;;999.90;;
10571;SDS011;5334;48.928;12.704;2022-10-31T03:27:14;1999.90;;;999.90;;
10571;SDS011;5334;48.928;12.704;2022-10-31T03:29:44;1999.90;;;999.90;;
10571;SDS011;5334;48.928;12.704;2022-10-31T03:32:13;1999.90;;;999.90;;
10571;SDS011;5334;48.928;12.704;2022-10-31T03:34:43;1999.90;;;999.90;;
10571;SDS011;5334;48.928;12.704;2022-10-31T03:37:13;1999.90;;;999.90;;
10571;SDS011;5334;48.928;12.704;2022-10-31T03:39:43;1999.90;;;999.90;;
10571;SDS011;5334;48.928;12.704;2022-10-31T03:42:13;1999.90;;;999.90;;
10571;SDS011;5334;48.928;12.704;2022-10-31T03:44:42;1999.90;;;999.90;;
10571;SDS011;5334;48.928;12.704;2022-10-31T03:47:14;1999.90;;;999.90;;
10571;SDS011;5334;48.928;12.704;2022-10-31T03:49:40;1999.90;;;999.90;;
10571;SDS011;5334;48.928;12.704;2022-10-31T03:52:12;1999.90;;;999.90;;
10571;SDS011;5334;48.928;12.704;2022-10-31T03:54:45;1999.90;;;999.90;;
10571;SDS011;5334;48.928;12.704;2022-10-31T04:02:29;1999.90;;;999.90;;
10571;SDS011;5334;48.928;12.704;2022-10-31T04:04:58;1999.90;;;999.90;;
10571;SDS011;5334;48.928;12.704;2022-10-31T04:07:26;1999.90;;;999.90;;
10571;SDS011;5334;48.928;12.704;2022-10-31T04:09:56;1999.90;;;999.90;;
10571;SDS011;5334;48.928;12.704;2022-10-31T04:12:24;1999.90;;;999.90;;
10571;SDS011;5334;48.928;12.704;2022-10-31T04:14:51;1999.90;;;999.90;;
10571;SDS011;5334;48.928;12.704;2022-10-31T04:17:19;1999.90;;;999.90;;
10571;SDS011;5334;48.928;12.704;2022-10-31T04:19:48;1999.90;;;999.90;;
10571;SDS011;5334;48.928;12.704;2022-10-31T04:22:13;1999.90;;;999.90;;
10571;SDS011;5334;48.928;12.704;2022-10-31T04:24:39;1999.90;;;999.90;;
10571;SDS011;5334;48.928;12.704;2022-10-31T04:27:06;1999.90;;;999.90;;
10571;SDS011;5334;48.928;12.704;2022-10-31T04:29:32;1999.90;;;999.90;;
10571;SDS011;5334;48.928;12.704;2022-10-31T04:31:57;1999.90;;;999.90;;
10571;SDS011;5334;48.928;12.704;2022-10-31T04:34:23;1999.90;;;999.90;;
10571;SDS011;5334;48.928;12.704;2022-10-31T04:36:49;1999.90;;;999.90;;
10571;SDS011;5334;48.928;12.704;2022-10-31T04:39:15;1999.90;;;999.90;;
10571;SDS011;5334;48.928;12.704;2022-10-31T04:41:40;1999.90;;;999.90;;
10571;SDS011;5334;48.928;12.704;2022-10-31T04:44:06;1999.90;;;999.90;;
10571;SDS011;5334;48.928;12.704;2022-10-31T04:46:32;1999.90;;;999.90;;
10571;SDS011;5334;48.928;12.704;2022-10-31T04:48:57;1999.90;;;999.90;;
10571;SDS011;5334;48.928;12.704;2022-10-31T04:51:23;1999.90;;;999.90;;
10571;SDS011;5334;48.928;12.704;2022-10-31T04:53:49;1999.90;;;999.90;;
10571;SDS011;5334;48.928;12.704;2022-10-31T04:56:15;1999.90;;;999.90;;
10571;SDS011;5334;48.928;12.704;2022-10-31T04:58:41;1999.90;;;999.90;;
10571;SDS011;5334;48.928;12.704;2022-10-31T05:01:07;1999.90;;;999.90;;
10571;SDS011;5334;48.928;12.704;2022-10-31T05:03:33;1999.90;;;999.90;;
10571;SDS011;5334;48.928;12.704;2022-10-31T05:05:58;1999.90;;;999.90;;
10571;SDS011;5334;48.928;12.704;2022-10-31T05:08:24;1999.90;;;999.90;;
10571;SDS011;5334;48.928;12.704;2022-10-31T05:10:50;1999.90;;;999.90;;
10571;SDS011;5334;48.928;12.704;2022-10-31T05:13:16;1999.90;;;999.90;;
10571;SDS011;5334;48.928;12.704;2022-10-31T05:15:42;1999.90;;;999.90;;
10571;SDS011;5334;48.928;12.704;2022-10-31T05:18:08;1999.90;;;999.90;;
10571;SDS011;5334;48.928;12.704;2022-10-31T05:20:34;1999.90;;;999.90;;
10571;SDS011;5334;48.928;12.704;2022-10-31T05:23:00;1999.90;;;999.90;;
10571;SDS011;5334;48.928;12.704;2022-10-31T05:25:26;1999.90;;;999.90;;
10571;SDS011;5334;48.928;12.704;2022-10-31T05:27:54;1999.90;;;999.90;;
10571;SDS011;5334;48.928;12.704;2022-10-31T05:30:21;1999.90;;;999.90;;
10571;SDS011;5334;48.928;12.704;2022-10-31T05:32:50;1999.90;;;999.90;;
10571;SDS011;5334;48.928;12.704;2022-10-31T05:35:17;1999.90;;;999.90;;
10571;SDS011;5334;48.928;12.704;2022-10-31T05:37:44;1999.90;;;999.90;;
10571;SDS011;5334;48.928;12.704;2022-10-31T05:40:11;1999.90;;;999.90;;
10571;SDS011;5334;48.928;12.704;2022-10-31T05:42:38;1999.90;;;999.90;;
10571;SDS011;5334;48.928;12.704;2022-10-31T05:45:05;1999.90;;;999.90;;
10571;SDS011;5334;48.928;12.704;2022-10-31T05:47:35;1999.90;;;999.90;;
10571;SDS011;5334;48.928;12.704;2022-10-31T05:50:01;1999.90;;;999.90;;
10571;SDS011;5334;48.928;12.704;2022-10-31T05:52:27;1999.90;;;999.90;;
10571;SDS011;5334;48.928;12.704;2022-10-31T05:54:53;1999.90;;;999.90;;
10571;SDS011;5334;48.928;12.704;2022-10-31T05:57:19;1999.90;;;999.90;;
10571;SDS011;5334;48.928;12.704;2022-10-31T05:59:44;1999.90;;;999.90;;
10571;SDS011;5334;48.928;12.704;2022-10-31T06:02:10;1999.90;;;999.90;;
10571;SDS011;5334;48.928;12.704;2022-10-31T06:04:36;1999.90;;;999.90;;
10571;SDS011;5334;48.928;12.704;2022-10-31T06:07:01;1999.90;;;999.90;;
10571;SDS011;5334;48.928;12.704;2022-10-31T06:09:27;1999.90;;;999.90;;
10571;SDS011;5334;48.928;12.704;2022-10-31T06:11:53;1999.90;;;999.90;;
10571;SDS011;5334;48.928;12.704;2022-10-31T06:14:18;1999.90;;;999.90;;
10571;SDS011;5334;48.928;12.704;2022-10-31T06:16:44;1999.90;;;999.90;;
10571;SDS011;5334;48.928;12.704;2022-10-31T06:19:10;1999.90;;;999.90;;
10571;SDS011;5334;48.928;12.704;2022-10-31T06:21:35;1999.90;;;999.90;;
10571;SDS011;5334;48.928;12.704;2022-10-31T06:24:01;1999.90;;;999.90;;
10571;SDS011;5334;48.928;12.704;2022-10-31T06:26:27;1999.90;;;999.90;;
10571;SDS011;5334;48.928;12.704;2022-10-31T06:28:53;1999.90;;;999.90;;
10571;SDS011;5334;48.928;12.704;2022-10-31T06:31:18;1999.90;;;999.90;;
10571;SDS011;5334;48.928;12.704;2022-10-31T06:33:44;1999.90;;;999.90;;
10571;SDS011;5334;48.928;12.704;2022-10-31T06:36:10;1999.90;;;999.90;;
10571;SDS011;5334;48.928;12.704;2022-10-31T06:38:35;1999.90;;;999.90;;
10571;SDS011;5334;48.928;12.704;2022-10-31T06:41:02;1999.90;;;999.90;;
10571;SDS011;5334;48.928;12.704;2022-10-31T06:43:29;1999.90;;;999.90;;
10571;SDS011;5334;48.928;12.704;2022-10-31T06:45:55;1999.90;;;999.90;;
10571;SDS011;5334;48.928;12.704;2022-10-31T06:48:20;1999.90;;;999.90;;
10571;SDS011;5334;48.928;12.704;2022-10-31T06:50:47;1999.90;;;999.90;;
10571;SDS011;5334;48.928;12.704;2022-10-31T06:53:12;1999.90;;;999.90;;
10571;SDS011;5334;48.928;12.704;2022-10-31T06:55:39;1999.90;;;999.90;;
10571;SDS011;5334;48.928;12.704;2022-10-31T06:58:05;1999.90;;;999.90;;
10571;SDS011;5334;48.928;12.704;2022-10-31T07:00:31;1999.90;;;999.90;;
10571;SDS011;5334;48.928;12.704;2022-10-31T07:03:01;1999.90;;;999.90;;
10571;SDS011;5334;48.928;12.704;2022-10-31T07:05:32;1999.90;;;999.90;;
10571;SDS011;5334;48.928;12.704;2022-10-31T07:07:59;1999.90;;;999.90;;
10571;SDS011;5334;48.928;12.704;2022-10-31T07:10:26;1999.90;;;999.90;;
10571;SDS011;5334;48.928;12.704;2022-10-31T07:13:04;1999.90;;;999.90;;
10571;SDS011;5334;48.928;12.704;2022-10-31T07:15:34;1999.90;;;999.90;;
10571;SDS011;5334;48.928;12.704;2022-10-31T07:18:04;1999.90;;;999.90;;
10571;SDS011;5334;48.928;12.704;2022-10-31T07:20:32;1999.90;;;999.90;;
10571;SDS011;5334;48.928;12.704;2022-10-31T07:22:57;1999.90;;;999.90;;
10571;SDS011;5334;48.928;12.704;2022-10-31T07:25:23;1999.90;;;999.90;;
10571;SDS011;5334;48.928;12.704;2022-10-31T07:27:50;1999.90;;;999.90;;
10571;SDS011;5334;48.928;12.704;2022-10-31T07:30:16;1999.90;;;999.90;;
10571;SDS011;5334;48.928;12.704;2022-10-31T07:32:45;1999.90;;;999.90;;
10571;SDS011;5334;48.928;12.704;2022-10-31T07:35:13;1999.90;;;999.90;;
10571;SDS011;5334;48.928;12.704;2022-10-31T07:37:40;1999.90;;;999.90;;
10571;SDS011;5334;48.928;12.704;2022-10-31T07:40:06;1999.90;;;999.90;;
10571;SDS011;5334;48.928;12.704;2022-10-31T07:42:39;1999.90;;;999.90;;
10571;SDS011;5334;48.928;12.704;2022-10-31T07:45:07;1999.90;;;999.90;;
10571;SDS011;5334;48.928;12.704;2022-10-31T07:47:43;1999.90;;;999.90;;
10571;SDS011;5334;48.928;12.704;2022-10-31T07:50:12;1999.90;;;999.90;;
10571;SDS011;5334;48.928;12.704;2022-10-31T07:52:39;1999.90;;;999.90;;
10571;SDS011;5334;48.928;12.704;2022-10-31T07:55:06;1999.90;;;999.90;;
10571;SDS011;5334;48.928;12.704;2022-10-31T07:57:32;1999.90;;;999.90;;
10571;SDS011;5334;48.928;12.704;2022-10-31T07:59:58;1999.90;;;999.90;;
10571;SDS011;5334;48.928;12.704;2022-10-31T08:02:24;1999.90;;;999.90;;
10571;SDS011;5334;48.928;12.704;2022-10-31T08:04:50;1999.90;;;999.90;;
10571;SDS011;5334;48.928;12.704;2022-10-31T08:07:16;1999.90;;;999.90;;
10571;SDS011;5334;48.928;12.704;2022-10-31T08:09:42;1999.90;;;999.90;;
10571;SDS011;5334;48.928;12.704;2022-10-31T08:12:08;1999.90;;;999.90;;
10571;SDS011;5334;48.928;12.704;2022-10-31T08:14:34;1999.90;;;999.90;;
10571;SDS011;5334;48.928;12.704;2022-10-31T08:16:59;1999.90;;;999.90;;
10571;SDS011;5334;48.928;12.704;2022-10-31T08:19:25;1999.90;;;999.90;;
10571;SDS011;5334;48.928;12.704;2022-10-31T08:21:51;1999.90;;;999.90;;
10571;SDS011;5334;48.928;12.704;2022-10-31T08:24:19;1999.90;;;999.90;;
10571;SDS011;5334;48.928;12.704;2022-10-31T08:26:48;1999.90;;;999.90;;
10571;SDS011;5334;48.928;12.704;2022-10-31T08:29:14;1999.90;;;999.90;;
10571;SDS011;5334;48.928;12.704;2022-10-31T08:31:40;1999.90;;;999.90;;
10571;SDS011;5334;48.928;12.704;2022-10-31T08:34:06;1999.90;;;999.90;;
10571;SDS011;5334;48.928;12.704;2022-10-31T08:36:32;1999.90;;;999.90;;
10571;SDS011;5334;48.928;12.704;2022-10-31T08:38:58;1999.90;;;999.90;;
10571;SDS011;5334;48.928;12.704;2022-10-31T08:41:24;1999.90;;;999.90;;
10571;SDS011;5334;48.928;12.704;2022-10-31T08:43:50;1999.90;;;999.90;;
10571;SDS011;5334;48.928;12.704;2022-10-31T08:46:15;1999.90;;;999.90;;
10571;SDS011;5334;48.928;12.704;2022-10-31T08:48:41;1999.90;;;999.90;;
10571;SDS011;5334;48.928;12.704;2022-10-31T08:51:08;1999.90;;;999.90;;
10571;SDS011;5334;48.928;12.704;2022-10-31T08:53:34;1999.90;;;999.90;;
10571;SDS011;5334;48.928;12.704;2022-10-31T08:56:00;1999.90;;;999.90;;
10571;SDS011;5334;48.928;12.704;2022-10-31T08:58:26;1999.90;;;999.90;;
10571;SDS011;5334;48.928;12.704;2022-10-31T09:00:52;1999.90;;;999.90;;
10571;SDS011;5334;48.928;12.704;2022-10-31T09:03:20;1999.90;;;999.90;;
10571;SDS011;5334;48.928;12.704;2022-10-31T09:05:54;1999.90;;;999.90;;
10571;SDS011;5334;48.928;12.704;2022-10-31T09:08:21;1999.90;;;999.90;;
10571;SDS011;5334;48.928;12.704;2022-10-31T09:10:47;1999.90;;;999.90;;
10571;SDS011;5334;48.928;12.704;2022-10-31T09:13:14;1999.90;;;999.90;;
10571;SDS011;5334;48.928;12.704;2022-10-31T09:15:42;1999.90;;;999.90;;
10571;SDS011;5334;48.928;12.704;2022-10-31T09:18:10;1999.90;;;999.90;;
10571;SDS011;5334;48.928;12.704;2022-10-31T09:20:36;1999.90;;;999.90;;
10571;SDS011;5334;48.928;12.704;2022-10-31T09:23:04;1999.90;;;999.90;;
10571;SDS011;5334;48.928;12.704;2022-10-31T09:25:32;1999.90;;;999.90;;
10571;SDS011;5334;48.928;12.704;2022-10-31T09:27:59;1999.90;;;999.90;;
10571;SDS011;5334;48.928;12.704;2022-10-31T09:30:26;1999.90;;;999.90;;
10571;SDS011;5334;48.928;12.704;2022-10-31T09:32:56;1999.90;;;999.90;;
10571;SDS011;5334;48.928;12.704;2022-10-31T09:35:28;1999.90;;;999.90;;
10571;SDS011;5334;48.928;12.704;2022-10-31T09:37:57;1999.90;;;999.90;;
10571;SDS011;5334;48.928;12.704;2022-10-31T09:40:31;1999.90;;;999.90;;
10571;SDS011;5334;48.928;12.704;2022-10-31T09:48:13;1999.90;;;999.90;;
10571;SDS011;5334;48.928;12.704;2022-10-31T09:50:56;1999.90;;;999.90;;
10571;SDS011;5334;48.928;12.704;2022-10-31T09:56:08;1999.90;;;999.90;;
10571;SDS011;5334;48.928;12.704;2022-10-31T09:58:42;1999.90;;;999.90;;
10571;SDS011;5334;48.928;12.704;2022-10-31T10:01:23;1999.90;;;999.90;;
10571;SDS011;5334;48.928;12.704;2022-10-31T10:03:57;1999.90;;;999.90;;
10571;SDS011;5334;48.928;12.704;2022-10-31T10:06:28;1999.90;;;999.90;;
10571;SDS011;5334;48.928;12.704;2022-10-31T10:08:57;1999.90;;;999.90;;
10571;SDS011;5334;48.928;12.704;2022-10-31T10:16:55;43.50;;;41.63;;
10571;SDS011;5334;48.928;12.704;2022-10-31T10:22:23;699.40;;;364.63;;
10571;SDS011;5334;48.928;12.704;2022-10-31T10:25:20;66.13;;;63.23;;
10571;SDS011;5334;48.928;12.704;2022-10-31T10:31:06;53.10;;;50.80;;
10571;SDS011;5334;48.928;12.704;2022-10-31T10:33:32;64.07;;;61.27;;
10571;SDS011;5334;48.928;12.704;2022-10-31T10:36:04;48.30;;;46.17;;
10571;SDS011;5334;48.928;12.704;2022-10-31T10:38:39;46.33;;;44.33;;
10571;SDS011;5334;48.928;12.704;2022-10-31T10:41:18;50.07;;;47.87;;
10571;SDS011;5334;48.928;12.704;2022-10-31T10:43:49;39.73;;;38.03;;
10571;SDS011;5334;48.928;12.704;2022-10-31T11:00:18;65.07;;;62.23;;
10571;SDS011;5334;48.928;12.704;2022-10-31T11:02:49;53.33;;;51.03;;
10571;SDS011;5334;48.928;12.704;2022-10-31T11:05:23;44.80;;;42.83;;
10571;SDS011;5334;48.928;12.704;2022-10-31T11:07:53;42.30;;;40.47;;
10571;SDS011;5334;48.928;12.704;2022-10-31T11:10:21;50.93;;;48.67;;
10571;SDS011;5334;48.928;12.704;2022-10-31T11:13:01;46.07;;;44.07;;
10571;SDS011;5334;48.928;12.704;2022-10-31T11:15:28;54.23;;;51.87;;
10571;SDS011;5334;48.928;12.704;2022-10-31T11:17:58;43.33;;;41.43;;
10571;SDS011;5334;48.928;12.704;2022-10-31T11:20:32;43.67;;;41.77;;
10571;SDS011;5334;48.928;12.704;2022-10-31T11:23:03;45.17;;;43.23;;
10571;SDS011;5334;48.928;12.704;2022-10-31T11:28:20;47.20;;;45.17;;
10571;SDS011;5334;48.928;12.704;2022-10-31T11:30:48;43.73;;;41.83;;
10571;SDS011;5334;48.928;12.704;2022-10-31T11:33:27;42.27;;;40.43;;
10571;SDS011;5334;48.928;12.704;2022-10-31T11:35:55;42.07;;;40.07;;
10571;SDS011;5334;48.928;12.704;2022-10-31T11:38:22;40.47;;;38.67;;
10571;SDS011;5334;48.928;12.704;2022-10-31T11:40:56;39.47;;;37.77;;
10571;SDS011;5334;48.928;12.704;2022-10-31T11:43:23;44.40;;;42.47;;
10571;SDS011;5334;48.928;12.704;2022-10-31T11:45:49;42.77;;;40.93;;
10571;SDS011;5334;48.928;12.704;2022-10-31T11:48:20;39.57;;;37.87;;
10571;SDS011;5334;48.928;12.704;2022-10-31T11:50:48;43.47;;;41.57;;
10571;SDS011;5334;48.928;12.704;2022-10-31T11:53:16;44.07;;;42.17;;
10571;SDS011;5334;48.928;12.704;2022-10-31T11:55:44;40.13;;;38.33;;
10571;SDS011;5334;48.928;12.704;2022-10-31T11:58:21;42.30;;;40.40;;
10571;SDS011;5334;48.928;12.704;2022-10-31T12:00:49;41.10;;;39.30;;
10571;SDS011;5334;48.928;12.704;2022-10-31T12:06:03;43.83;;;41.90;;
10571;SDS011;5334;48.928;12.704;2022-10-31T12:08:31;35.03;;;33.53;;
10571;SDS011;5334;48.928;12.704;2022-10-31T12:16:15;40.83;;;39.07;;
10571;SDS011;5334;48.928;12.704;2022-10-31T12:21:57;46.50;;;44.50;;
10571;SDS011;5334;48.928;12.704;2022-10-31T12:30:02;46.27;;;44.10;;
10571;SDS011;5334;48.928;12.704;2022-10-31T12:32:38;38.90;;;37.20;;
10571;SDS011;5334;48.928;12.704;2022-10-31T12:35:27;35.33;;;33.83;;
10571;SDS011;5334;48.928;12.704;2022-10-31T12:38:01;42.73;;;40.87;;
10571;SDS011;5334;48.928;12.704;2022-10-31T12:43:22;41.30;;;39.50;;
10571;SDS011;5334;48.928;12.704;2022-10-31T12:45:56;39.60;;;37.90;;
10571;SDS011;5334;48.928;12.704;2022-10-31T12:54:09;39.47;;;37.77;;
10571;SDS011;5334;48.928;12.704;2022-10-31T12:56:42;43.47;;;41.57;;
10571;SDS011;5334;48.928;12.704;2022-10-31T12:59:16;37.23;;;35.63;;
10571;SDS011;5334;48.928;12.704;2022-10-31T13:01:58;43.90;;;42.00;;
10571;SDS011;5334;48.928;12.704;2022-10-31T13:04:42;53.17;;;50.83;;
10571;SDS011;5334;48.928;12.704;2022-10-31T13:12:37;43.77;;;41.77;;
10571;SDS011;5334;48.928;12.704;2022-10-31T13:15:12;41.40;;;39.30;;
10571;SDS011;5334;48.928;12.704;2022-10-31T13:17:43;47.40;;;45.37;;
10571;SDS011;5334;48.928;12.704;2022-10-31T13:23:08;40.33;;;38.63;;
10571;SDS011;5334;48.928;12.704;2022-10-31T13:25:48;48.67;;;46.57;;
10571;SDS011;5334;48.928;12.704;2022-10-31T13:30:51;42.37;;;40.53;;
10571;SDS011;5334;48.928;12.704;2022-10-31T13:33:25;47.83;;;45.73;;
10571;SDS011;5334;48.928;12.704;2022-10-31T13:39:10;37.87;;;36.27;;
10571;SDS011;5334;48.928;12.704;2022-10-31T13:44:22;67.43;;;64.50;;
10571;SDS011;5334;48.928;12.704;2022-10-31T13:46:49;46.67;;;44.60;;
10571;SDS011;5334;48.928;12.704;2022-10-31T13:54:35;43.17;;;41.30;;
10571;SDS011;5334;48.928;12.704;2022-10-31T14:02:50;44.73;;;42.83;;
10571;SDS011;5334;48.928;12.704;2022-10-31T14:07:49;47.93;;;45.83;;
10571;SDS011;5334;48.928;12.704;2022-10-31T14:10:20;40.17;;;38.47;;
10571;SDS011;5334;48.928;12.704;2022-10-31T14:12:52;52.47;;;50.07;;
10571;SDS011;5334;48.928;12.704;2022-10-31T14:15:28;51.20;;;49.00;;
10571;SDS011;5334;48.928;12.704;2022-10-31T14:17:54;50.77;;;48.57;;
10571;SDS011;5334;48.928;12.704;2022-10-31T14:28:44;48.00;;;45.90;;
10571;SDS011;5334;48.928;12.704;2022-10-31T14:36:54;50.90;;;48.70;;
10571;SDS011;5334;48.928;12.704;2022-10-31T14:40:01;45.67;;;43.67;;
10571;SDS011;5334;48.928;12.704;2022-10-31T14:50:20;54.00;;;51.63;;
10571;SDS011;5334;48.928;12.704;2022-10-31T14:53:03;45.50;;;43.50;;
10571;SDS011;5334;48.928;12.704;2022-10-31T14:55:31;46.83;;;44.83;;
10571;SDS011;5334;48.928;12.704;2022-10-31T14:57:59;40.40;;;38.67;;
10571;SDS011;5334;48.928;12.704;2022-10-31T15:00:26;39.00;;;37.33;;
10571;SDS011;5334;48.928;12.704;2022-10-31T15:03:03;41.73;;;39.93;;
10571;SDS011;5334;48.928;12.704;2022-10-31T15:05:42;64.17;;;61.37;;
10571;SDS011;5334;48.928;12.704;2022-10-31T15:11:06;39.30;;;37.60;;
10571;SDS011;5334;48.928;12.704;2022-10-31T15:16:19;37.57;;;35.97;;
10571;SDS011;5334;48.928;12.704;2022-10-31T15:19:03;44.43;;;42.53;;
10571;SDS011;5334;48.928;12.704;2022-10-31T15:21:31;43.80;;;41.90;;
10571;SDS011;5334;48.928;12.704;2022-10-31T15:23:59;45.50;;;43.50;;
10571;SDS011;5334;48.928;12.704;2022-10-31T15:26:31;42.33;;;40.53;;
10571;SDS011;5334;48.928;12.704;2022-10-31T15:29:04;44.13;;;42.23;;
10571;SDS011;5334;48.928;12.704;2022-10-31T15:31:31;43.30;;;41.40;;
10571;SDS011;5334;48.928;12.704;2022-10-31T15:34:02;43.43;;;41.53;;
10571;SDS011;5334;48.928;12.704;2022-10-31T15:36:32;43.03;;;41.17;;
10571;SDS011;5334;48.928;12.704;2022-10-31T15:38:58;49.03;;;46.93;;
10571;SDS011;5334;48.928;12.704;2022-10-31T15:43:49;48.17;;;46.07;;
10571;SDS011;5334;48.928;12.704;2022-10-31T15:46:15;50.53;;;48.33;;
10571;SDS011;5334;48.928;12.704;2022-10-31T15:48:44;44.33;;;42.43;;
10571;SDS011;5334;48.928;12.704;2022-10-31T15:51:12;44.70;;;42.80;;
10571;SDS011;5334;48.928;12.704;2022-10-31T15:56:22;43.67;;;41.67;;
10571;SDS011;5334;48.928;12.704;2022-10-31T15:58:50;44.97;;;43.03;;
10571;SDS011;5334;48.928;12.704;2022-10-31T16:01:28;43.87;;;41.97;;
10571;SDS011;5334;48.928;12.704;2022-10-31T16:06:36;38.70;;;37.03;;
10571;SDS011;5334;48.928;12.704;2022-10-31T16:09:03;47.23;;;45.20;;
10571;SDS011;5334;48.928;12.704;2022-10-31T16:11:43;38.83;;;37.13;;
10571;SDS011;5334;48.928;12.704;2022-10-31T16:16:40;45.17;;;43.17;;
10571;SDS011;5334;48.928;12.704;2022-10-31T16:19:13;43.73;;;41.83;;
10571;SDS011;5334;48.928;12.704;2022-10-31T16:21:40;51.03;;;48.83;;
10571;SDS011;5334;48.928;12.704;2022-10-31T16:26:46;49.43;;;47.23;;
10571;SDS011;5334;48.928;12.704;2022-10-31T16:29:27;1999.90;;;999.90;;
10571;SDS011;5334;48.928;12.704;2022-10-31T16:31:53;1999.90;;;999.90;;
10571;SDS011;5334;48.928;12.704;2022-10-31T16:34:20;1999.90;;;999.90;;
10571;SDS011;5334;48.928;12.704;2022-10-31T16:36:47;1346.57;;;679.30;;
10571;SDS011;5334;48.928;12.704;2022-10-31T16:39:13;1999.90;;;999.90;;
10571;SDS011;5334;48.928;12.704;2022-10-31T16:41:40;1999.90;;;999.90;;
10571;SDS011;5334;48.928;12.704;2022-10-31T16:44:26;1348.70;;;681.37;;
10571;SDS011;5334;48.928;12.704;2022-10-31T16:49:32;1999.90;;;999.90;;
10571;SDS011;5334;48.928;12.704;2022-10-31T16:51:58;1999.90;;;999.90;;
10571;SDS011;5334;48.928;12.704;2022-10-31T16:54:24;1999.90;;;999.90;;
10571;SDS011;5334;48.928;12.704;2022-10-31T16:56:49;1999.90;;;999.90;;
10571;SDS011;5334;48.928;12.704;2022-10-31T16:59:15;1999.90;;;999.90;;